sensor_id;sensor_type;location;lat;lon;timestamp;P1;durP1;ratioP1;P2;durP2;ratioP2
38196;SDS011;26543;51.976;4.616;2022-12-24T00:01:52;10.40;;;3.13;;
38196;SDS011;26543;51.976;4.616;2022-12-24T00:04:18;8.43;;;2.53;;
38196;SDS011;26543;51.976;4.616;2022-12-24T00:06:43;19.58;;;3.63;;
38196;SDS011;26543;51.976;4.616;2022-12-24T00:09:08;10.43;;;1.95;;
38196;SDS011;26543;51.976;4.616;2022-12-24T00:11:34;15.70;;;2.92;;
38196;SDS011;26543;51.976;4.616;2022-12-24T00:13:59;11.93;;;2.17;;
38196;SDS011;26543;51.976;4.616;2022-12-24T00:16:25;8.57;;;2.45;;
38196;SDS011;26543;51.976;4.616;2022-12-24T00:18:50;11.30;;;2.90;;
38196;SDS011;26543;51.976;4.616;2022-12-24T00:21:15;7.35;;;2.13;;
38196;SDS011;26543;51.976;4.616;2022-12-24T00:23:41;12.50;;;2.50;;
38196;SDS011;26543;51.976;4.616;2022-12-24T00:26:06;8.00;;;2.08;;
38196;SDS011;26543;51.976;4.616;2022-12-24T00:28:32;15.02;;;3.17;;
38196;SDS011;26543;51.976;4.616;2022-12-24T00:30:57;12.60;;;2.25;;
38196;SDS011;26543;51.976;4.616;2022-12-24T00:33:23;9.85;;;2.78;;
38196;SDS011;26543;51.976;4.616;2022-12-24T00:35:49;20.52;;;3.70;;
38196;SDS011;26543;51.976;4.616;2022-12-24T00:38:15;8.43;;;2.92;;
38196;SDS011;26543;51.976;4.616;2022-12-24T00:40:41;6.88;;;2.28;;
38196;SDS011;26543;51.976;4.616;2022-12-24T00:43:06;13.38;;;3.03;;
38196;SDS011;26543;51.976;4.616;2022-12-24T00:45:31;16.23;;;2.08;;
38196;SDS011;26543;51.976;4.616;2022-12-24T00:47:57;17.75;;;2.85;;
38196;SDS011;26543;51.976;4.616;2022-12-24T00:50:22;12.50;;;3.20;;
38196;SDS011;26543;51.976;4.616;2022-12-24T00:52:48;6.80;;;1.27;;
38196;SDS011;26543;51.976;4.616;2022-12-24T00:55:13;19.85;;;3.17;;
38196;SDS011;26543;51.976;4.616;2022-12-24T00:57:39;7.10;;;2.05;;
38196;SDS011;26543;51.976;4.616;2022-12-24T01:00:07;8.50;;;2.13;;
38196;SDS011;26543;51.976;4.616;2022-12-24T01:02:33;17.75;;;3.15;;
38196;SDS011;26543;51.976;4.616;2022-12-24T01:05:01;11.27;;;2.08;;
38196;SDS011;26543;51.976;4.616;2022-12-24T01:07:40;17.33;;;2.95;;
38196;SDS011;26543;51.976;4.616;2022-12-24T01:10:08;11.05;;;3.03;;
38196;SDS011;26543;51.976;4.616;2022-12-24T01:12:44;7.68;;;2.05;;
38196;SDS011;26543;51.976;4.616;2022-12-24T01:15:10;12.25;;;1.95;;
38196;SDS011;26543;51.976;4.616;2022-12-24T01:17:38;14.23;;;3.60;;
38196;SDS011;26543;51.976;4.616;2022-12-24T01:20:04;7.63;;;2.33;;
38196;SDS011;26543;51.976;4.616;2022-12-24T01:22:33;14.52;;;2.50;;
38196;SDS011;26543;51.976;4.616;2022-12-24T01:24:58;18.92;;;2.35;;
38196;SDS011;26543;51.976;4.616;2022-12-24T01:27:24;15.45;;;2.55;;
38196;SDS011;26543;51.976;4.616;2022-12-24T01:29:49;16.80;;;2.70;;
38196;SDS011;26543;51.976;4.616;2022-12-24T01:32:15;10.52;;;2.63;;
38196;SDS011;26543;51.976;4.616;2022-12-24T01:34:40;6.28;;;1.42;;
38196;SDS011;26543;51.976;4.616;2022-12-24T01:37:05;13.45;;;1.80;;
38196;SDS011;26543;51.976;4.616;2022-12-24T01:39:31;13.43;;;2.42;;
38196;SDS011;26543;51.976;4.616;2022-12-24T01:42:00;7.32;;;2.22;;
38196;SDS011;26543;51.976;4.616;2022-12-24T01:44:45;19.25;;;2.63;;
38196;SDS011;26543;51.976;4.616;2022-12-24T01:47:22;13.07;;;2.53;;
38196;SDS011;26543;51.976;4.616;2022-12-24T01:49:53;19.83;;;3.22;;
38196;SDS011;26543;51.976;4.616;2022-12-24T01:52:20;12.35;;;3.35;;
38196;SDS011;26543;51.976;4.616;2022-12-24T01:54:49;9.48;;;2.70;;
38196;SDS011;26543;51.976;4.616;2022-12-24T01:57:27;7.78;;;2.08;;
38196;SDS011;26543;51.976;4.616;2022-12-24T01:59:56;12.38;;;2.10;;
38196;SDS011;26543;51.976;4.616;2022-12-24T02:02:26;15.05;;;1.80;;
38196;SDS011;26543;51.976;4.616;2022-12-24T02:05:06;11.02;;;2.40;;
38196;SDS011;26543;51.976;4.616;2022-12-24T02:07:35;9.43;;;1.73;;
38196;SDS011;26543;51.976;4.616;2022-12-24T02:10:02;14.68;;;3.13;;
38196;SDS011;26543;51.976;4.616;2022-12-24T02:12:29;6.85;;;2.15;;
38196;SDS011;26543;51.976;4.616;2022-12-24T02:14:58;9.68;;;1.65;;
38196;SDS011;26543;51.976;4.616;2022-12-24T02:17:48;13.68;;;1.98;;
38196;SDS011;26543;51.976;4.616;2022-12-24T02:25:55;13.82;;;2.22;;
38196;SDS011;26543;51.976;4.616;2022-12-24T02:29:02;9.13;;;2.22;;
38196;SDS011;26543;51.976;4.616;2022-12-24T02:31:55;20.58;;;2.20;;
38196;SDS011;26543;51.976;4.616;2022-12-24T02:37:06;11.02;;;1.92;;
38196;SDS011;26543;51.976;4.616;2022-12-24T02:44:57;13.27;;;2.08;;
38196;SDS011;26543;51.976;4.616;2022-12-24T02:47:25;9.32;;;2.55;;
38196;SDS011;26543;51.976;4.616;2022-12-24T02:49:53;12.82;;;3.55;;
38196;SDS011;26543;51.976;4.616;2022-12-24T02:52:35;17.98;;;3.75;;
38196;SDS011;26543;51.976;4.616;2022-12-24T03:03:48;12.60;;;3.40;;
38196;SDS011;26543;51.976;4.616;2022-12-24T03:06:22;15.90;;;2.95;;
38196;SDS011;26543;51.976;4.616;2022-12-24T03:09:01;16.23;;;3.22;;
38196;SDS011;26543;51.976;4.616;2022-12-24T03:11:57;19.90;;;2.53;;
38196;SDS011;26543;51.976;4.616;2022-12-24T03:14:31;15.60;;;2.90;;
38196;SDS011;26543;51.976;4.616;2022-12-24T03:16:58;15.73;;;2.65;;
38196;SDS011;26543;51.976;4.616;2022-12-24T03:19:26;17.85;;;3.40;;
38196;SDS011;26543;51.976;4.616;2022-12-24T03:21:53;10.32;;;3.65;;
38196;SDS011;26543;51.976;4.616;2022-12-24T03:24:20;18.77;;;3.20;;
38196;SDS011;26543;51.976;4.616;2022-12-24T03:26:46;14.38;;;3.60;;
38196;SDS011;26543;51.976;4.616;2022-12-24T03:29:11;25.58;;;2.88;;
38196;SDS011;26543;51.976;4.616;2022-12-24T03:31:44;12.90;;;3.38;;
38196;SDS011;26543;51.976;4.616;2022-12-24T03:34:14;7.80;;;2.22;;
38196;SDS011;26543;51.976;4.616;2022-12-24T03:36:43;16.85;;;3.38;;
38196;SDS011;26543;51.976;4.616;2022-12-24T03:39:13;11.43;;;2.67;;
38196;SDS011;26543;51.976;4.616;2022-12-24T03:41:38;13.68;;;2.70;;
38196;SDS011;26543;51.976;4.616;2022-12-24T03:44:03;15.68;;;3.42;;
38196;SDS011;26543;51.976;4.616;2022-12-24T03:46:29;19.23;;;2.78;;
38196;SDS011;26543;51.976;4.616;2022-12-24T03:48:54;17.13;;;2.53;;
38196;SDS011;26543;51.976;4.616;2022-12-24T03:51:21;12.77;;;2.97;;
38196;SDS011;26543;51.976;4.616;2022-12-24T03:53:48;7.47;;;2.60;;
38196;SDS011;26543;51.976;4.616;2022-12-24T03:56:15;12.45;;;3.83;;
38196;SDS011;26543;51.976;4.616;2022-12-24T03:58:41;16.25;;;3.75;;
38196;SDS011;26543;51.976;4.616;2022-12-24T04:01:06;12.48;;;2.53;;
38196;SDS011;26543;51.976;4.616;2022-12-24T04:03:31;7.80;;;2.15;;
38196;SDS011;26543;51.976;4.616;2022-12-24T04:06:01;10.23;;;2.10;;
38196;SDS011;26543;51.976;4.616;2022-12-24T04:08:31;12.50;;;2.80;;
38196;SDS011;26543;51.976;4.616;2022-12-24T04:10:56;8.50;;;2.45;;
38196;SDS011;26543;51.976;4.616;2022-12-24T04:13:22;16.25;;;3.05;;
38196;SDS011;26543;51.976;4.616;2022-12-24T04:16:04;15.57;;;3.15;;
38196;SDS011;26543;51.976;4.616;2022-12-24T04:18:31;10.57;;;2.20;;
38196;SDS011;26543;51.976;4.616;2022-12-24T04:21:00;8.05;;;2.03;;
38196;SDS011;26543;51.976;4.616;2022-12-24T04:23:25;8.68;;;1.98;;
38196;SDS011;26543;51.976;4.616;2022-12-24T04:25:51;17.05;;;2.08;;
38196;SDS011;26543;51.976;4.616;2022-12-24T04:28:16;11.60;;;2.50;;
38196;SDS011;26543;51.976;4.616;2022-12-24T04:30:42;7.90;;;2.75;;
38196;SDS011;26543;51.976;4.616;2022-12-24T04:33:08;6.93;;;1.35;;
38196;SDS011;26543;51.976;4.616;2022-12-24T04:35:38;10.05;;;1.90;;
38196;SDS011;26543;51.976;4.616;2022-12-24T04:38:05;14.27;;;2.25;;
38196;SDS011;26543;51.976;4.616;2022-12-24T04:40:31;13.95;;;2.45;;
38196;SDS011;26543;51.976;4.616;2022-12-24T04:42:56;13.20;;;1.95;;
38196;SDS011;26543;51.976;4.616;2022-12-24T04:45:22;15.90;;;2.45;;
38196;SDS011;26543;51.976;4.616;2022-12-24T04:47:47;8.60;;;1.55;;
38196;SDS011;26543;51.976;4.616;2022-12-24T04:50:15;15.98;;;2.42;;
38196;SDS011;26543;51.976;4.616;2022-12-24T04:52:41;13.85;;;2.20;;
38196;SDS011;26543;51.976;4.616;2022-12-24T04:55:06;19.70;;;2.63;;
38196;SDS011;26543;51.976;4.616;2022-12-24T04:57:32;13.88;;;3.60;;
38196;SDS011;26543;51.976;4.616;2022-12-24T04:59:59;16.88;;;2.90;;
38196;SDS011;26543;51.976;4.616;2022-12-24T05:02:25;7.28;;;2.63;;
38196;SDS011;26543;51.976;4.616;2022-12-24T05:04:50;14.02;;;3.30;;
38196;SDS011;26543;51.976;4.616;2022-12-24T05:07:16;16.35;;;3.17;;
38196;SDS011;26543;51.976;4.616;2022-12-24T05:09:47;9.93;;;2.67;;
38196;SDS011;26543;51.976;4.616;2022-12-24T05:12:12;16.25;;;3.75;;
38196;SDS011;26543;51.976;4.616;2022-12-24T05:14:38;12.95;;;2.97;;
38196;SDS011;26543;51.976;4.616;2022-12-24T05:17:04;14.57;;;4.15;;
38196;SDS011;26543;51.976;4.616;2022-12-24T05:19:29;7.78;;;2.35;;
38196;SDS011;26543;51.976;4.616;2022-12-24T05:21:55;19.98;;;4.22;;
38196;SDS011;26543;51.976;4.616;2022-12-24T05:24:39;15.63;;;4.20;;
38196;SDS011;26543;51.976;4.616;2022-12-24T05:27:22;18.48;;;2.92;;
38196;SDS011;26543;51.976;4.616;2022-12-24T05:29:48;17.33;;;3.30;;
38196;SDS011;26543;51.976;4.616;2022-12-24T05:32:13;19.60;;;2.83;;
38196;SDS011;26543;51.976;4.616;2022-12-24T05:34:39;10.02;;;2.03;;
38196;SDS011;26543;51.976;4.616;2022-12-24T05:37:04;17.10;;;2.67;;
38196;SDS011;26543;51.976;4.616;2022-12-24T05:39:29;20.40;;;2.90;;
38196;SDS011;26543;51.976;4.616;2022-12-24T05:41:55;17.13;;;2.78;;
38196;SDS011;26543;51.976;4.616;2022-12-24T05:44:20;12.40;;;3.08;;
38196;SDS011;26543;51.976;4.616;2022-12-24T05:46:45;19.17;;;3.42;;
38196;SDS011;26543;51.976;4.616;2022-12-24T05:49:11;13.40;;;2.40;;
38196;SDS011;26543;51.976;4.616;2022-12-24T05:51:36;14.23;;;3.55;;
38196;SDS011;26543;51.976;4.616;2022-12-24T05:54:04;13.32;;;3.42;;
38196;SDS011;26543;51.976;4.616;2022-12-24T05:56:29;13.77;;;2.75;;
38196;SDS011;26543;51.976;4.616;2022-12-24T05:58:55;25.88;;;4.15;;
38196;SDS011;26543;51.976;4.616;2022-12-24T06:01:20;9.57;;;2.80;;
38196;SDS011;26543;51.976;4.616;2022-12-24T06:03:49;11.10;;;3.03;;
38196;SDS011;26543;51.976;4.616;2022-12-24T06:06:16;21.58;;;3.50;;
38196;SDS011;26543;51.976;4.616;2022-12-24T06:08:49;17.00;;;3.80;;
38196;SDS011;26543;51.976;4.616;2022-12-24T06:11:16;15.82;;;2.97;;
38196;SDS011;26543;51.976;4.616;2022-12-24T06:13:42;21.70;;;4.07;;
38196;SDS011;26543;51.976;4.616;2022-12-24T06:16:12;17.38;;;3.28;;
38196;SDS011;26543;51.976;4.616;2022-12-24T06:18:41;16.83;;;3.20;;
38196;SDS011;26543;51.976;4.616;2022-12-24T06:21:07;20.60;;;3.80;;
38196;SDS011;26543;51.976;4.616;2022-12-24T06:23:35;22.92;;;3.75;;
38196;SDS011;26543;51.976;4.616;2022-12-24T06:26:02;17.80;;;2.97;;
38196;SDS011;26543;51.976;4.616;2022-12-24T06:28:29;12.18;;;3.25;;
38196;SDS011;26543;51.976;4.616;2022-12-24T06:30:56;18.30;;;2.75;;
38196;SDS011;26543;51.976;4.616;2022-12-24T06:33:23;25.35;;;4.43;;
38196;SDS011;26543;51.976;4.616;2022-12-24T06:35:49;13.05;;;3.45;;
38196;SDS011;26543;51.976;4.616;2022-12-24T06:38:14;17.17;;;4.40;;
38196;SDS011;26543;51.976;4.616;2022-12-24T06:40:40;18.85;;;3.03;;
38196;SDS011;26543;51.976;4.616;2022-12-24T06:43:07;22.25;;;4.28;;
38196;SDS011;26543;51.976;4.616;2022-12-24T06:45:33;16.20;;;3.47;;
38196;SDS011;26543;51.976;4.616;2022-12-24T06:47:58;21.67;;;3.38;;
38196;SDS011;26543;51.976;4.616;2022-12-24T06:50:25;13.25;;;3.33;;
38196;SDS011;26543;51.976;4.616;2022-12-24T06:52:50;14.57;;;2.83;;
38196;SDS011;26543;51.976;4.616;2022-12-24T06:55:15;16.88;;;3.25;;
38196;SDS011;26543;51.976;4.616;2022-12-24T06:57:41;24.55;;;3.53;;
38196;SDS011;26543;51.976;4.616;2022-12-24T07:00:07;13.75;;;3.20;;
38196;SDS011;26543;51.976;4.616;2022-12-24T07:02:33;25.65;;;3.85;;
38196;SDS011;26543;51.976;4.616;2022-12-24T07:04:59;11.30;;;2.75;;
38196;SDS011;26543;51.976;4.616;2022-12-24T07:07:24;21.50;;;2.78;;
38196;SDS011;26543;51.976;4.616;2022-12-24T07:09:50;10.55;;;2.78;;
38196;SDS011;26543;51.976;4.616;2022-12-24T07:12:15;14.88;;;3.05;;
38196;SDS011;26543;51.976;4.616;2022-12-24T07:14:44;21.90;;;3.00;;
38196;SDS011;26543;51.976;4.616;2022-12-24T07:17:09;25.42;;;4.07;;
38196;SDS011;26543;51.976;4.616;2022-12-24T07:19:35;15.13;;;2.80;;
38196;SDS011;26543;51.976;4.616;2022-12-24T07:22:04;11.15;;;2.13;;
38196;SDS011;26543;51.976;4.616;2022-12-24T07:24:29;8.15;;;2.20;;
38196;SDS011;26543;51.976;4.616;2022-12-24T07:26:55;15.13;;;3.63;;
38196;SDS011;26543;51.976;4.616;2022-12-24T07:29:20;22.88;;;2.45;;
38196;SDS011;26543;51.976;4.616;2022-12-24T07:31:51;10.50;;;3.33;;
38196;SDS011;26543;51.976;4.616;2022-12-24T07:34:16;20.50;;;3.80;;
38196;SDS011;26543;51.976;4.616;2022-12-24T07:36:42;24.45;;;2.95;;
38196;SDS011;26543;51.976;4.616;2022-12-24T07:39:07;12.32;;;3.78;;
38196;SDS011;26543;51.976;4.616;2022-12-24T07:41:35;21.40;;;3.08;;
38196;SDS011;26543;51.976;4.616;2022-12-24T07:44:01;14.30;;;3.33;;
38196;SDS011;26543;51.976;4.616;2022-12-24T07:46:26;12.05;;;2.85;;
38196;SDS011;26543;51.976;4.616;2022-12-24T07:48:51;9.43;;;2.05;;
38196;SDS011;26543;51.976;4.616;2022-12-24T07:51:17;12.68;;;3.00;;
38196;SDS011;26543;51.976;4.616;2022-12-24T07:53:42;16.60;;;2.63;;
38196;SDS011;26543;51.976;4.616;2022-12-24T07:56:12;24.77;;;4.03;;
38196;SDS011;26543;51.976;4.616;2022-12-24T07:58:38;31.95;;;4.75;;
38196;SDS011;26543;51.976;4.616;2022-12-24T08:01:04;21.92;;;3.30;;
38196;SDS011;26543;51.976;4.616;2022-12-24T08:03:30;24.10;;;4.35;;
38196;SDS011;26543;51.976;4.616;2022-12-24T08:05:58;23.50;;;3.38;;
38196;SDS011;26543;51.976;4.616;2022-12-24T08:08:24;22.40;;;3.45;;
38196;SDS011;26543;51.976;4.616;2022-12-24T08:10:50;16.88;;;3.08;;
38196;SDS011;26543;51.976;4.616;2022-12-24T08:13:16;11.75;;;2.65;;
38196;SDS011;26543;51.976;4.616;2022-12-24T08:15:42;21.33;;;4.03;;
38196;SDS011;26543;51.976;4.616;2022-12-24T08:18:08;26.75;;;3.03;;
38196;SDS011;26543;51.976;4.616;2022-12-24T08:20:35;16.67;;;3.35;;
38196;SDS011;26543;51.976;4.616;2022-12-24T08:23:02;14.20;;;2.33;;
38196;SDS011;26543;51.976;4.616;2022-12-24T08:25:28;14.02;;;1.60;;
38196;SDS011;26543;51.976;4.616;2022-12-24T08:27:53;28.63;;;3.03;;
38196;SDS011;26543;51.976;4.616;2022-12-24T08:30:18;14.10;;;3.15;;
38196;SDS011;26543;51.976;4.616;2022-12-24T08:32:44;10.98;;;1.77;;
38196;SDS011;26543;51.976;4.616;2022-12-24T08:35:09;8.15;;;2.22;;
38196;SDS011;26543;51.976;4.616;2022-12-24T08:37:34;14.18;;;2.75;;
38196;SDS011;26543;51.976;4.616;2022-12-24T08:40:03;10.13;;;2.97;;
38196;SDS011;26543;51.976;4.616;2022-12-24T08:42:28;14.57;;;3.28;;
38196;SDS011;26543;51.976;4.616;2022-12-24T08:44:54;13.88;;;3.38;;
38196;SDS011;26543;51.976;4.616;2022-12-24T08:47:19;20.08;;;3.38;;
38196;SDS011;26543;51.976;4.616;2022-12-24T08:49:44;17.63;;;3.55;;
38196;SDS011;26543;51.976;4.616;2022-12-24T08:52:12;19.70;;;3.33;;
38196;SDS011;26543;51.976;4.616;2022-12-24T08:54:40;14.20;;;3.55;;
38196;SDS011;26543;51.976;4.616;2022-12-24T08:57:05;10.63;;;2.60;;
38196;SDS011;26543;51.976;4.616;2022-12-24T08:59:31;11.63;;;2.50;;
38196;SDS011;26543;51.976;4.616;2022-12-24T09:01:56;12.82;;;3.45;;
38196;SDS011;26543;51.976;4.616;2022-12-24T09:04:22;19.08;;;3.15;;
38196;SDS011;26543;51.976;4.616;2022-12-24T09:06:47;10.60;;;3.00;;
38196;SDS011;26543;51.976;4.616;2022-12-24T09:09:12;8.00;;;1.60;;
38196;SDS011;26543;51.976;4.616;2022-12-24T09:11:38;14.05;;;3.03;;
38196;SDS011;26543;51.976;4.616;2022-12-24T09:14:03;9.35;;;2.78;;
38196;SDS011;26543;51.976;4.616;2022-12-24T09:16:28;20.52;;;3.28;;
38196;SDS011;26543;51.976;4.616;2022-12-24T09:18:55;15.50;;;2.97;;
38196;SDS011;26543;51.976;4.616;2022-12-24T09:21:21;15.48;;;3.03;;
38196;SDS011;26543;51.976;4.616;2022-12-24T09:23:46;10.32;;;2.78;;
38196;SDS011;26543;51.976;4.616;2022-12-24T09:26:20;11.30;;;2.70;;
38196;SDS011;26543;51.976;4.616;2022-12-24T09:28:47;21.15;;;3.47;;
38196;SDS011;26543;51.976;4.616;2022-12-24T09:31:13;17.38;;;3.28;;
38196;SDS011;26543;51.976;4.616;2022-12-24T09:33:39;18.50;;;4.03;;
38196;SDS011;26543;51.976;4.616;2022-12-24T09:36:05;14.27;;;3.72;;
38196;SDS011;26543;51.976;4.616;2022-12-24T09:38:32;15.02;;;3.45;;
38196;SDS011;26543;51.976;4.616;2022-12-24T09:40:58;17.95;;;2.85;;
38196;SDS011;26543;51.976;4.616;2022-12-24T09:43:26;19.00;;;3.45;;
38196;SDS011;26543;51.976;4.616;2022-12-24T09:48:43;16.73;;;1.90;;
38196;SDS011;26543;51.976;4.616;2022-12-24T09:51:26;12.20;;;1.77;;
38196;SDS011;26543;51.976;4.616;2022-12-24T09:53:56;18.55;;;1.92;;
38196;SDS011;26543;51.976;4.616;2022-12-24T09:56:32;21.77;;;3.85;;
38196;SDS011;26543;51.976;4.616;2022-12-24T09:59:02;11.35;;;2.95;;
38196;SDS011;26543;51.976;4.616;2022-12-24T10:01:30;9.45;;;1.98;;
38196;SDS011;26543;51.976;4.616;2022-12-24T10:03:59;10.45;;;2.40;;
38196;SDS011;26543;51.976;4.616;2022-12-24T10:06:29;14.77;;;2.97;;
38196;SDS011;26543;51.976;4.616;2022-12-24T10:17:02;11.05;;;2.40;;
38196;SDS011;26543;51.976;4.616;2022-12-24T10:22:40;8.35;;;2.10;;
38196;SDS011;26543;51.976;4.616;2022-12-24T10:28:23;12.68;;;2.63;;
38196;SDS011;26543;51.976;4.616;2022-12-24T10:30:57;7.60;;;2.38;;
38196;SDS011;26543;51.976;4.616;2022-12-24T10:33:28;5.65;;;1.88;;
38196;SDS011;26543;51.976;4.616;2022-12-24T10:35:58;11.05;;;2.75;;
38196;SDS011;26543;51.976;4.616;2022-12-24T10:38:24;15.57;;;2.20;;
38196;SDS011;26543;51.976;4.616;2022-12-24T10:40:51;6.20;;;1.98;;
38196;SDS011;26543;51.976;4.616;2022-12-24T10:43:23;11.82;;;2.65;;
38196;SDS011;26543;51.976;4.616;2022-12-24T10:45:54;8.50;;;1.67;;
38196;SDS011;26543;51.976;4.616;2022-12-24T10:48:35;10.40;;;2.03;;
38196;SDS011;26543;51.976;4.616;2022-12-24T10:51:05;11.20;;;2.20;;
38196;SDS011;26543;51.976;4.616;2022-12-24T10:54:04;19.35;;;2.35;;
38196;SDS011;26543;51.976;4.616;2022-12-24T10:56:30;12.02;;;2.33;;
38196;SDS011;26543;51.976;4.616;2022-12-24T10:58:56;9.15;;;2.72;;
38196;SDS011;26543;51.976;4.616;2022-12-24T11:01:43;12.45;;;2.28;;
38196;SDS011;26543;51.976;4.616;2022-12-24T11:04:15;11.68;;;2.90;;
38196;SDS011;26543;51.976;4.616;2022-12-24T11:06:52;7.15;;;1.75;;
38196;SDS011;26543;51.976;4.616;2022-12-24T11:09:29;16.48;;;2.20;;
38196;SDS011;26543;51.976;4.616;2022-12-24T11:11:59;11.77;;;2.63;;
38196;SDS011;26543;51.976;4.616;2022-12-24T11:14:29;11.68;;;1.63;;
38196;SDS011;26543;51.976;4.616;2022-12-24T11:16:59;18.63;;;3.60;;
38196;SDS011;26543;51.976;4.616;2022-12-24T11:19:34;10.68;;;2.47;;
38196;SDS011;26543;51.976;4.616;2022-12-24T11:22:05;12.82;;;3.00;;
38196;SDS011;26543;51.976;4.616;2022-12-24T11:24:35;10.18;;;2.55;;
38196;SDS011;26543;51.976;4.616;2022-12-24T11:29:46;7.47;;;2.30;;
38196;SDS011;26543;51.976;4.616;2022-12-24T11:32:16;7.70;;;1.98;;
38196;SDS011;26543;51.976;4.616;2022-12-24T11:34:45;9.20;;;2.50;;
38196;SDS011;26543;51.976;4.616;2022-12-24T11:39:52;17.50;;;2.85;;
38196;SDS011;26543;51.976;4.616;2022-12-24T11:42:26;20.60;;;2.65;;
38196;SDS011;26543;51.976;4.616;2022-12-24T11:44:59;8.27;;;2.08;;
38196;SDS011;26543;51.976;4.616;2022-12-24T11:47:37;12.55;;;2.85;;
38196;SDS011;26543;51.976;4.616;2022-12-24T11:58:36;10.20;;;2.67;;
38196;SDS011;26543;51.976;4.616;2022-12-24T12:01:18;15.50;;;2.70;;
38196;SDS011;26543;51.976;4.616;2022-12-24T12:03:48;9.00;;;1.65;;
38196;SDS011;26543;51.976;4.616;2022-12-24T12:09:18;8.40;;;2.08;;
38196;SDS011;26543;51.976;4.616;2022-12-24T12:11:47;4.65;;;1.88;;
38196;SDS011;26543;51.976;4.616;2022-12-24T12:14:20;10.40;;;2.45;;
38196;SDS011;26543;51.976;4.616;2022-12-24T12:19:25;8.18;;;1.95;;
38196;SDS011;26543;51.976;4.616;2022-12-24T12:21:54;13.25;;;2.80;;
38196;SDS011;26543;51.976;4.616;2022-12-24T12:24:27;11.30;;;2.30;;
38196;SDS011;26543;51.976;4.616;2022-12-24T12:27:07;12.55;;;3.50;;
38196;SDS011;26543;51.976;4.616;2022-12-24T12:29:41;11.95;;;2.28;;
38196;SDS011;26543;51.976;4.616;2022-12-24T12:32:20;14.63;;;2.20;;
38196;SDS011;26543;51.976;4.616;2022-12-24T12:34:54;9.38;;;2.53;;
38196;SDS011;26543;51.976;4.616;2022-12-24T12:37:30;8.52;;;2.10;;
38196;SDS011;26543;51.976;4.616;2022-12-24T12:40:10;11.23;;;2.25;;
38196;SDS011;26543;51.976;4.616;2022-12-24T12:42:38;14.38;;;2.03;;
38196;SDS011;26543;51.976;4.616;2022-12-24T12:48:36;8.30;;;1.85;;
38196;SDS011;26543;51.976;4.616;2022-12-24T12:56:57;5.35;;;1.55;;
38196;SDS011;26543;51.976;4.616;2022-12-24T13:00:13;6.93;;;2.00;;
38196;SDS011;26543;51.976;4.616;2022-12-24T13:10:51;6.25;;;2.42;;
38196;SDS011;26543;51.976;4.616;2022-12-24T13:19:14;13.15;;;2.28;;
38196;SDS011;26543;51.976;4.616;2022-12-24T13:21:48;12.10;;;2.13;;
38196;SDS011;26543;51.976;4.616;2022-12-24T13:24:19;12.50;;;1.80;;
38196;SDS011;26543;51.976;4.616;2022-12-24T13:34:50;8.73;;;1.83;;
38196;SDS011;26543;51.976;4.616;2022-12-24T13:50:27;7.07;;;2.63;;
38196;SDS011;26543;51.976;4.616;2022-12-24T13:52:59;12.20;;;2.80;;
38196;SDS011;26543;51.976;4.616;2022-12-24T13:55:25;9.50;;;1.65;;
38196;SDS011;26543;51.976;4.616;2022-12-24T14:00:27;11.05;;;2.50;;
38196;SDS011;26543;51.976;4.616;2022-12-24T14:02:57;13.18;;;2.35;;
38196;SDS011;26543;51.976;4.616;2022-12-24T14:16:04;13.45;;;2.30;;
38196;SDS011;26543;51.976;4.616;2022-12-24T14:18:41;13.10;;;2.88;;
38196;SDS011;26543;51.976;4.616;2022-12-24T14:21:15;12.32;;;2.35;;
38196;SDS011;26543;51.976;4.616;2022-12-24T14:26:17;9.52;;;2.00;;
38196;SDS011;26543;51.976;4.616;2022-12-24T14:31:21;12.27;;;2.67;;
38196;SDS011;26543;51.976;4.616;2022-12-24T14:33:47;14.38;;;2.67;;
38196;SDS011;26543;51.976;4.616;2022-12-24T14:36:13;15.48;;;4.82;;
38196;SDS011;26543;51.976;4.616;2022-12-24T14:38:42;13.27;;;3.53;;
38196;SDS011;26543;51.976;4.616;2022-12-24T14:46:56;13.38;;;3.35;;
38196;SDS011;26543;51.976;4.616;2022-12-24T14:54:40;16.80;;;2.55;;
38196;SDS011;26543;51.976;4.616;2022-12-24T15:05:07;12.23;;;2.88;;
38196;SDS011;26543;51.976;4.616;2022-12-24T15:07:39;11.27;;;2.28;;
38196;SDS011;26543;51.976;4.616;2022-12-24T15:10:17;12.98;;;2.15;;
38196;SDS011;26543;51.976;4.616;2022-12-24T15:12:48;17.63;;;2.75;;
38196;SDS011;26543;51.976;4.616;2022-12-24T15:15:15;17.00;;;2.70;;
38196;SDS011;26543;51.976;4.616;2022-12-24T15:17:42;19.83;;;3.03;;
38196;SDS011;26543;51.976;4.616;2022-12-24T15:20:12;14.60;;;4.03;;
38196;SDS011;26543;51.976;4.616;2022-12-24T15:22:41;10.50;;;2.70;;
38196;SDS011;26543;51.976;4.616;2022-12-24T15:25:23;12.43;;;2.90;;
38196;SDS011;26543;51.976;4.616;2022-12-24T15:27:51;15.40;;;2.70;;
38196;SDS011;26543;51.976;4.616;2022-12-24T15:30:18;14.13;;;3.80;;
38196;SDS011;26543;51.976;4.616;2022-12-24T15:32:46;13.93;;;2.15;;
38196;SDS011;26543;51.976;4.616;2022-12-24T15:37:54;12.85;;;2.83;;
38196;SDS011;26543;51.976;4.616;2022-12-24T15:40:22;24.42;;;3.15;;
38196;SDS011;26543;51.976;4.616;2022-12-24T15:42:49;15.50;;;3.03;;
38196;SDS011;26543;51.976;4.616;2022-12-24T15:45:19;18.50;;;3.75;;
38196;SDS011;26543;51.976;4.616;2022-12-24T15:47:47;8.77;;;2.63;;
38196;SDS011;26543;51.976;4.616;2022-12-24T15:53:10;9.48;;;2.58;;
38196;SDS011;26543;51.976;4.616;2022-12-24T15:55:39;13.20;;;2.30;;
38196;SDS011;26543;51.976;4.616;2022-12-24T15:58:22;16.45;;;3.15;;
38196;SDS011;26543;51.976;4.616;2022-12-24T16:01:23;7.00;;;3.08;;
38196;SDS011;26543;51.976;4.616;2022-12-24T16:06:18;13.77;;;3.35;;
38196;SDS011;26543;51.976;4.616;2022-12-24T16:08:44;13.45;;;3.25;;
38196;SDS011;26543;51.976;4.616;2022-12-24T16:11:11;27.40;;;4.43;;
38196;SDS011;26543;51.976;4.616;2022-12-24T16:13:42;14.10;;;4.22;;
38196;SDS011;26543;51.976;4.616;2022-12-24T16:16:20;11.27;;;4.35;;
38196;SDS011;26543;51.976;4.616;2022-12-24T16:18:54;21.23;;;4.07;;
38196;SDS011;26543;51.976;4.616;2022-12-24T16:21:23;20.35;;;3.90;;
38196;SDS011;26543;51.976;4.616;2022-12-24T16:23:53;14.52;;;4.45;;
38196;SDS011;26543;51.976;4.616;2022-12-24T16:26:21;9.75;;;3.33;;
38196;SDS011;26543;51.976;4.616;2022-12-24T16:28:47;15.70;;;4.00;;
38196;SDS011;26543;51.976;4.616;2022-12-24T16:31:16;23.33;;;5.85;;
38196;SDS011;26543;51.976;4.616;2022-12-24T16:33:43;16.55;;;7.70;;
38196;SDS011;26543;51.976;4.616;2022-12-24T16:36:09;21.30;;;9.02;;
38196;SDS011;26543;51.976;4.616;2022-12-24T16:38:34;32.03;;;11.00;;
38196;SDS011;26543;51.976;4.616;2022-12-24T16:41:20;24.88;;;7.50;;
38196;SDS011;26543;51.976;4.616;2022-12-24T16:43:46;15.90;;;6.10;;
38196;SDS011;26543;51.976;4.616;2022-12-24T16:46:14;10.45;;;5.35;;
38196;SDS011;26543;51.976;4.616;2022-12-24T16:48:40;18.50;;;5.88;;
38196;SDS011;26543;51.976;4.616;2022-12-24T16:51:10;53.42;;;23.73;;
38196;SDS011;26543;51.976;4.616;2022-12-24T16:53:35;29.35;;;15.30;;
38196;SDS011;26543;51.976;4.616;2022-12-24T16:56:00;21.30;;;8.73;;
38196;SDS011;26543;51.976;4.616;2022-12-24T16:58:26;18.50;;;7.28;;
38196;SDS011;26543;51.976;4.616;2022-12-24T17:00:53;19.83;;;9.82;;
38196;SDS011;26543;51.976;4.616;2022-12-24T17:03:23;30.13;;;7.97;;
38196;SDS011;26543;51.976;4.616;2022-12-24T17:05:49;28.33;;;16.83;;
38196;SDS011;26543;51.976;4.616;2022-12-24T17:08:14;40.65;;;23.08;;
38196;SDS011;26543;51.976;4.616;2022-12-24T17:10:42;60.13;;;35.75;;
38196;SDS011;26543;51.976;4.616;2022-12-24T17:13:14;43.10;;;19.55;;
38196;SDS011;26543;51.976;4.616;2022-12-24T17:15:40;59.10;;;31.20;;